Time;durP1;ratioP1;P1;durP2;ratioP2;P2;SDS_P1;SDS_P2;PMS_P1;PMS_P2;Temp;Humidity;BMP_temperature;BMP_pressure;BME280_temperature;BME280_humidity;BME280_pressure;Samples;Min_cycle;Max_cycle;Signal;HPM_P1;HPM_P2
2022/05/17 00:03:14;;;;;;;8.37;4.27;;;18.00;99.90;;;;;;10543765;28;20227;-84
2022/05/17 00:08:19;;;;;;;4.33;4.03;;;17.90;99.90;;;;;;10544699;28;20220;-84
2022/05/17 00:13:21;;;;;;;4.30;4.00;;;17.90;99.90;;;;;;10542765;28;20291;-85
2022/05/17 00:18:23;;;;;;;3.83;3.53;;;17.80;99.90;;;;;;10533046;28;20220;-84
2022/05/17 00:23:27;;;;;;;4.20;3.90;;;17.80;99.90;;;;;;10528521;28;20300;-85
2022/05/17 00:28:29;;;;;;;4.40;4.00;;;17.80;99.90;;;;;;10539726;28;20250;-84
2022/05/17 00:33:32;;;;;;;4.07;3.77;;;17.80;99.90;;;;;;10550074;28;20195;-83
2022/05/17 00:38:35;;;;;;;5.17;4.00;;;17.70;99.90;;;;;;10533566;28;20220;-84
2022/05/17 00:49:01;;;;;;;6.67;4.40;;;17.70;99.90;;;;;;10550275;28;20230;-86
2022/05/17 00:54:08;;;;;;;5.03;4.63;;;17.70;99.90;;;;;;10553145;28;20663;-83
2022/05/17 00:59:11;;;;;;;4.20;3.80;;;17.70;99.90;;;;;;10513652;28;20218;-86
2022/05/17 01:04:17;;;;;;;4.10;3.80;;;17.60;99.90;;;;;;10499338;28;20196;-85
2022/05/17 01:09:23;;;;;;;4.20;3.90;;;17.60;99.90;;;;;;10517213;28;20196;-84
2022/05/17 01:19:45;;;;;;;4.27;3.97;;;17.60;99.90;;;;;;10537562;28;20230;-85
2022/05/17 01:24:49;;;;;;;5.40;5.00;;;17.50;99.90;;;;;;10547587;28;20465;-84
2022/05/17 01:29:52;;;;;;;5.53;5.03;;;17.50;99.90;;;;;;10531756;28;20231;-83
2022/05/17 01:34:54;;;;;;;4.50;4.10;;;17.50;99.90;;;;;;10522604;28;20339;-84
2022/05/17 01:39:57;;;;;;;5.00;4.60;;;17.50;99.90;;;;;;10527138;28;20240;-84
2022/05/17 01:45:00;;;;;;;4.50;4.20;;;17.40;99.90;;;;;;10527651;28;20764;-86
2022/05/17 01:50:02;;;;;;;5.53;5.00;;;17.50;99.90;;;;;;10523896;28;20204;-85
2022/05/17 01:55:07;;;;;;;4.67;4.30;;;17.40;99.90;;;;;;10547019;28;20695;-84
2022/05/17 02:00:12;;;;;;;4.80;4.40;;;17.40;99.90;;;;;;10539321;28;20636;-87
2022/05/17 02:05:14;;;;;;;4.90;4.50;;;17.30;99.90;;;;;;10540167;28;20216;-84
2022/05/17 02:10:18;;;;;;;4.73;4.33;;;17.30;99.90;;;;;;10539188;28;20200;-84
2022/05/17 02:15:21;;;;;;;4.97;4.57;;;17.30;99.90;;;;;;10536652;28;20220;-86
2022/05/17 02:20:23;;;;;;;6.07;5.03;;;17.20;99.90;;;;;;10536876;28;20232;-86
2022/05/17 02:25:27;;;;;;;5.80;4.57;;;17.20;99.90;;;;;;10560517;28;20224;-85
2022/05/17 02:30:31;;;;;;;6.03;5.40;;;17.10;99.90;;;;;;10543474;28;20195;-84
2022/05/17 02:35:34;;;;;;;4.60;4.20;;;17.10;99.90;;;;;;10541835;28;20216;-85
2022/05/17 02:40:37;;;;;;;5.80;5.30;;;17.10;99.90;;;;;;10545405;28;20228;-84
2022/05/17 02:45:40;;;;;;;5.53;5.03;;;17.00;99.90;;;;;;10536740;28;20612;-87
2022/05/17 02:50:42;;;;;;;5.70;5.20;;;17.00;99.90;;;;;;10552931;28;20222;-87
2022/05/17 02:55:45;;;;;;;5.80;5.30;;;17.00;99.90;;;;;;10536215;28;20220;-85
2022/05/17 03:00:48;;;;;;;6.40;5.80;;;16.90;99.90;;;;;;10532170;28;20330;-85
2022/05/17 03:05:50;;;;;;;5.90;5.37;;;16.90;99.90;;;;;;10543138;28;20216;-84
2022/05/17 03:10:53;;;;;;;7.20;6.50;;;16.90;99.90;;;;;;10523114;28;20196;-87
2022/05/17 03:15:55;;;;;;;6.27;5.70;;;16.90;99.90;;;;;;10539386;28;20223;-83
2022/05/17 03:20:58;;;;;;;6.27;5.77;;;16.90;99.90;;;;;;10546523;28;20227;-84
2022/05/17 03:26:01;;;;;;;6.50;5.90;;;16.80;99.90;;;;;;10537002;28;20247;-84
2022/05/17 03:31:07;;;;;;;7.57;6.93;;;16.80;99.90;;;;;;10550356;28;20195;-86
2022/05/17 03:36:11;;;;;;;7.23;5.80;;;16.80;99.90;;;;;;10517611;28;20254;-84
2022/05/17 03:41:15;;;;;;;6.67;5.93;;;16.70;99.90;;;;;;10550532;28;20587;-85
2022/05/17 03:46:17;;;;;;;7.00;6.57;;;16.70;99.90;;;;;;10524675;28;20225;-84
2022/05/17 03:51:20;;;;;;;7.53;6.90;;;16.70;99.90;;;;;;10515006;28;20290;-84
2022/05/17 03:56:24;;;;;;;7.83;6.83;;;16.60;99.90;;;;;;10512788;28;20685;-85
2022/05/17 04:01:26;;;;;;;7.60;7.00;;;16.60;99.90;;;;;;10536520;28;20220;-83
2022/05/17 04:06:28;;;;;;;6.00;5.50;;;16.60;99.90;;;;;;10514103;28;20216;-84
2022/05/17 04:11:32;;;;;;;7.07;6.57;;;16.70;99.90;;;;;;10525282;28;20196;-84
2022/05/17 04:16:36;;;;;;;6.90;6.30;;;16.70;99.90;;;;;;10537099;28;20219;-83
2022/05/17 04:21:38;;;;;;;7.40;6.80;;;16.70;99.90;;;;;;10538513;28;20223;-85
2022/05/17 04:26:42;;;;;;;7.10;6.40;;;16.70;99.90;;;;;;10537129;28;20709;-83
2022/05/17 04:31:45;;;;;;;7.33;6.83;;;16.70;99.90;;;;;;10516955;28;20291;-85
2022/05/17 04:36:47;;;;;;;7.40;6.90;;;16.70;99.90;;;;;;10517123;28;20249;-84
2022/05/17 04:41:50;;;;;;;7.70;7.20;;;16.70;99.90;;;;;;10498233;28;20211;-85
2022/05/17 04:46:53;;;;;;;8.73;7.63;;;16.70;99.90;;;;;;10517376;28;20296;-83
2022/05/17 04:51:55;;;;;;;8.03;7.40;;;16.80;99.90;;;;;;10531136;28;20636;-83
2022/05/17 04:56:59;;;;;;;7.30;6.80;;;16.80;99.90;;;;;;10515898;28;20274;-85
2022/05/17 05:02:01;;;;;;;7.37;6.73;;;16.80;99.90;;;;;;10535276;28;20228;-83
2022/05/17 05:07:03;;;;;;;7.93;7.30;;;16.90;99.90;;;;;;10529899;28;20224;-83
2022/05/17 05:12:07;;;;;;;6.70;6.10;;;16.90;99.90;;;;;;10525809;28;20210;-84
2022/05/17 05:17:10;;;;;;;7.90;7.30;;;16.90;99.90;;;;;;10535970;28;20220;-82
2022/05/17 05:22:12;;;;;;;8.17;7.37;;;17.00;99.90;;;;;;10543439;28;20231;-85
2022/05/17 05:27:15;;;;;;;7.70;7.17;;;17.00;99.90;;;;;;10545957;28;20217;-85
2022/05/17 05:32:17;;;;;;;7.43;6.70;;;17.10;99.90;;;;;;10530023;28;20275;-84
2022/05/17 05:37:20;;;;;;;7.63;7.03;;;17.10;99.90;;;;;;10537044;28;20499;-85
2022/05/17 05:42:24;;;;;;;7.97;7.37;;;17.20;99.90;;;;;;10525376;28;20727;-83
2022/05/17 05:47:27;;;;;;;8.07;7.47;;;17.30;99.90;;;;;;10502515;28;20228;-84
2022/05/17 05:52:30;;;;;;;9.50;7.07;;;17.30;99.90;;;;;;10518953;28;20279;-84
2022/05/17 05:57:33;;;;;;;8.10;7.40;;;17.40;99.90;;;;;;10519356;28;20550;-85
2022/05/17 06:02:35;;;;;;;7.03;6.50;;;17.50;99.90;;;;;;10518077;28;20259;-85
2022/05/17 06:07:37;;;;;;;6.93;6.53;;;17.60;99.90;;;;;;10534970;28;20665;-84
2022/05/17 06:12:41;;;;;;;8.30;7.60;;;17.70;99.90;;;;;;10535693;28;20192;-84
2022/05/17 06:17:44;;;;;;;8.77;7.97;;;17.90;99.90;;;;;;10523135;28;20219;-85
2022/05/17 06:22:48;;;;;;;8.37;7.57;;;18.00;99.90;;;;;;10529250;28;20248;-85
2022/05/17 06:27:52;;;;;;;7.07;6.43;;;18.10;99.90;;;;;;10507672;28;20215;-83
2022/05/17 06:32:54;;;;;;;6.90;6.40;;;18.30;99.90;;;;;;10491278;28;20200;-85
2022/05/17 06:37:56;;;;;;;9.50;8.60;;;18.40;99.90;;;;;;10504527;28;20245;-83
2022/05/17 06:43:00;;;;;;;8.20;7.40;;;18.60;99.90;;;;;;10512743;28;20224;-83
2022/05/17 06:48:03;;;;;;;7.73;7.03;;;18.80;99.90;;;;;;10513141;28;20220;-84
2022/05/17 06:53:07;;;;;;;7.80;7.07;;;19.00;99.90;;;;;;10490690;28;20199;-84
2022/05/17 06:58:10;;;;;;;8.13;7.13;;;19.30;99.90;;;;;;10489838;28;20216;-84
2022/05/17 07:03:15;;;;;;;7.30;6.63;;;19.50;99.90;;;;;;10506721;28;20274;-83
2022/05/17 07:08:18;;;;;;;7.27;6.57;;;19.70;99.90;;;;;;10508002;28;20572;-85
2022/05/17 07:13:21;;;;;;;6.57;5.97;;;20.00;99.90;;;;;;10488022;28;20353;-85
2022/05/17 07:18:26;;;;;;;6.47;5.93;;;20.20;99.90;;;;;;10486011;28;20247;-86
2022/05/17 07:23:28;;;;;;;7.07;6.47;;;20.40;99.90;;;;;;10512957;28;20299;-83
2022/05/17 07:28:32;;;;;;;6.13;5.63;;;20.60;99.90;;;;;;10493117;28;20221;-83
2022/05/17 07:33:34;;;;;;;7.37;6.63;;;20.90;99.90;;;;;;10506411;28;20227;-86
2022/05/17 07:38:37;;;;;;;5.93;5.47;;;21.20;99.90;;;;;;10506889;28;20216;-84
2022/05/17 07:43:41;;;;;;;6.73;6.10;;;21.40;99.90;;;;;;10504183;28;20216;-83
2022/05/17 07:48:43;;;;;;;5.87;5.40;;;21.70;99.90;;;;;;10516955;28;20246;-84
2022/05/17 07:53:46;;;;;;;6.70;6.20;;;22.00;99.90;;;;;;10490892;28;20202;-84
2022/05/17 07:58:51;;;;;;;5.63;4.90;;;22.20;99.90;;;;;;10497170;28;20228;-83
2022/05/17 08:03:53;;;;;;;5.83;5.30;;;22.60;99.90;;;;;;10511073;28;20227;-84
2022/05/17 08:08:55;;;;;;;5.17;4.77;;;22.90;99.90;;;;;;10505825;28;20527;-84
2022/05/17 08:13:59;;;;;;;5.33;4.93;;;23.20;99.90;;;;;;10527327;28;21783;-85
2022/05/17 08:19:01;;;;;;;4.57;4.27;;;23.60;99.90;;;;;;10522454;28;20223;-86
2022/05/17 08:24:04;;;;;;;4.23;3.93;;;24.00;99.90;;;;;;10523374;28;20250;-84
2022/05/17 08:29:09;;;;;;;4.50;4.20;;;24.50;99.90;;;;;;10504140;28;20234;-84
2022/05/17 08:34:11;;;;;;;4.50;4.10;;;24.90;99.90;;;;;;10514947;28;20671;-85
2022/05/17 08:39:13;;;;;;;5.10;4.60;;;25.30;99.10;;;;;;10539662;28;20223;-85
2022/05/17 08:44:30;;;;;;;4.43;4.03;;;25.60;99.90;;;;;;10535256;28;20219;-85
2022/05/17 08:49:38;;;;;;;5.40;4.90;;;25.70;99.90;;;;;;10507291;28;20590;-84
2022/05/17 08:54:42;;;;;;;6.43;4.83;;;25.70;97.60;;;;;;10530062;28;20646;-84
2022/05/17 08:59:48;;;;;;;4.73;4.33;;;25.60;97.70;;;;;;10509677;28;20227;-85
2022/05/17 09:05:15;;;;;;;4.70;4.40;;;25.70;99.20;;;;;;10499185;28;20224;-83
2022/05/17 09:10:28;;;;;;;4.53;4.23;;;25.80;99.30;;;;;;10480941;28;20286;-84
2022/05/17 09:15:32;;;;;;;4.73;4.43;;;26.10;99.20;;;;;;10516940;28;20227;-83
2022/05/17 09:20:36;;;;;;;5.37;4.80;;;26.30;99.70;;;;;;10533540;28;20672;-85
2022/05/17 09:26:04;;;;;;;5.10;4.67;;;26.50;97.60;;;;;;10487303;28;20225;-84
2022/05/17 09:31:10;;;;;;;6.70;4.50;;;26.60;98.10;;;;;;10512791;28;20200;-85
2022/05/17 09:36:19;;;;;;;4.60;4.30;;;26.90;98.30;;;;;;10531508;28;20224;-85
2022/05/17 09:41:34;;;;;;;4.83;4.40;;;27.10;97.40;;;;;;10498903;28;20218;-84
2022/05/17 09:46:46;;;;;;;4.53;4.13;;;27.20;96.20;;;;;;10517922;28;20759;-84
2022/05/17 09:57:18;;;;;;;4.53;4.10;;;27.20;95.80;;;;;;10513990;28;20220;-83
2022/05/17 10:02:41;;;;;;;4.80;4.33;;;27.40;95.20;;;;;;10509186;28;20281;-84
2022/05/17 10:07:50;;;;;;;5.93;4.50;;;27.40;95.60;;;;;;10525772;28;20215;-83
2022/05/17 10:13:03;;;;;;;4.80;4.50;;;27.40;95.20;;;;;;10535527;28;20265;-84
2022/05/17 10:18:16;;;;;;;4.77;4.37;;;27.60;93.90;;;;;;10529808;28;20223;-83
2022/05/17 10:23:27;;;;;;;5.17;4.77;;;27.50;94.90;;;;;;10498873;28;20315;-82
2022/05/17 10:28:38;;;;;;;5.17;4.60;;;27.20;94.60;;;;;;10517288;28;20223;-83
2022/05/17 10:33:56;;;;;;;6.57;4.77;;;26.70;94.40;;;;;;10503612;28;20197;-84
2022/05/17 10:39:06;;;;;;;5.20;4.80;;;26.30;94.10;;;;;;10504528;28;20216;-85
2022/05/17 10:44:09;;;;;;;5.10;4.70;;;25.90;94.50;;;;;;10502035;28;20212;-84
2022/05/17 10:49:21;;;;;;;6.77;4.93;;;25.60;93.30;;;;;;10500093;28;20293;-83
2022/05/17 10:54:37;;;;;;;5.07;4.67;;;25.30;91.30;;;;;;10523505;28;20202;-84
2022/05/17 10:59:45;;;;;;;4.30;4.00;;;25.00;94.40;;;;;;10508606;28;20252;-83
2022/05/17 11:05:07;;;;;;;4.13;3.83;;;24.80;93.90;;;;;;10510949;28;20278;-83
2022/05/17 11:10:21;;;;;;;9.83;4.47;;;24.70;95.30;;;;;;10517741;28;20238;-83
2022/05/17 11:15:27;;;;;;;4.60;4.20;;;24.60;93.90;;;;;;10524925;28;20220;-84
2022/05/17 11:20:35;;;;;;;5.17;4.10;;;24.50;95.50;;;;;;10501254;28;20741;-82
2022/05/17 11:25:58;;;;;;;4.60;4.30;;;24.40;94.80;;;;;;10520465;28;20223;-83
2022/05/17 11:31:06;;;;;;;4.10;3.80;;;24.30;95.10;;;;;;10511512;28;20208;-83
2022/05/17 11:36:11;;;;;;;4.90;4.40;;;24.10;96.90;;;;;;10522561;28;20220;-84
2022/05/17 11:41:22;;;;;;;4.30;3.90;;;24.00;97.10;;;;;;10527424;28;20273;-84
2022/05/17 11:46:46;;;;;;;3.60;3.30;;;23.80;95.40;;;;;;10520302;28;20632;-82
2022/05/17 11:52:30;;;;;;;4.93;4.40;;;23.70;95.60;;;;;;10555180;28;20192;-82
2022/05/17 11:57:59;;;;;;;3.20;2.90;;;23.50;95.10;;;;;;10525991;28;20304;-82
2022/05/17 12:03:04;;;;;;;3.90;3.60;;;23.40;95.70;;;;;;10488442;28;20226;-84
2022/05/17 12:08:30;;;;;;;3.07;2.87;;;23.30;93.50;;;;;;10503281;28;20594;-84
2022/05/17 12:13:40;;;;;;;3.33;3.13;;;23.30;95.90;;;;;;10537281;28;20211;-84
2022/05/17 12:18:45;;;;;;;4.23;3.93;;;23.20;93.90;;;;;;10521256;28;20233;-83
2022/05/17 12:23:53;;;;;;;2.40;2.20;;;23.10;94.70;;;;;;10515576;28;20225;-84
2022/05/17 12:30:52;;;;;;;3.20;3.00;;;23.10;90.70;;;;;;10519812;28;20288;-83
2022/05/17 12:34:23;;;;;;;3.67;3.47;;;23.10;93.60;;;;;;10538991;28;20204;-83
2022/05/17 12:44:48;;;;;;;3.03;2.83;;;22.90;92.30;;;;;;10543719;28;20617;-85
2022/05/17 12:49:53;;;;;;;3.30;3.10;;;23.00;94.30;;;;;;10498717;28;20192;-84
2022/05/17 12:54:59;;;;;;;2.43;2.20;;;22.90;94.70;;;;;;10512936;28;20571;-84
2022/05/17 13:00:12;;;;;;;3.40;2.23;;;22.90;90.60;;;;;;10501054;28;20204;-83
2022/05/17 13:05:29;;;;;;;2.77;2.57;;;23.00;89.90;;;;;;10528658;28;20262;-84
2022/05/17 13:10:31;;;;;;;2.67;2.57;;;23.00;91.00;;;;;;10533687;28;20204;-84
2022/05/17 13:15:35;;;;;;;2.60;2.50;;;23.10;87.10;;;;;;10539709;28;20250;-84
2022/05/17 13:20:38;;;;;;;2.20;2.10;;;23.10;90.60;;;;;;10525082;28;20204;-84
2022/05/17 13:25:44;;;;;;;2.67;2.47;;;23.10;90.00;;;;;;10542676;28;20231;-85
2022/05/17 13:30:50;;;;;;;2.70;2.50;;;23.20;88.30;;;;;;10512389;28;20198;-84
2022/05/17 13:36:05;;;;;;;2.87;2.67;;;23.20;94.10;;;;;;10547652;28;20220;-84
2022/05/17 13:41:21;;;;;;;2.83;2.63;;;23.20;94.00;;;;;;10514594;28;20210;-86
2022/05/17 13:46:28;;;;;;;2.47;2.27;;;23.10;92.50;;;;;;10518391;28;20231;-85
2022/05/17 13:51:38;;;;;;;3.37;2.40;;;23.10;90.30;;;;;;10503250;28;20203;-84
2022/05/17 13:56:44;;;;;;;2.30;2.10;;;23.10;89.00;;;;;;10495508;28;20213;-85
2022/05/17 14:01:55;;;;;;;2.60;2.37;;;23.20;92.00;;;;;;10536280;28;20214;-85
2022/05/17 14:07:00;;;;;;;2.70;2.60;;;23.20;91.30;;;;;;10529848;28;20219;-84
2022/05/17 14:12:10;;;;;;;2.13;2.03;;;23.10;90.10;;;;;;10538137;28;20223;-85
2022/05/17 14:17:23;;;;;;;2.50;2.40;;;23.20;93.80;;;;;;10544303;28;20215;-84
2022/05/17 14:22:29;;;;;;;2.13;2.03;;;23.20;94.70;;;;;;10528789;28;20568;-85
2022/05/17 14:27:31;;;;;;;2.70;2.60;;;23.20;93.40;;;;;;10553788;28;20719;-85
2022/05/17 14:32:35;;;;;;;2.30;2.20;;;23.10;93.60;;;;;;10534943;28;20196;-85
2022/05/17 14:37:37;;;;;;;2.17;2.07;;;23.20;92.50;;;;;;10538937;28;20216;-84
2022/05/17 14:42:39;;;;;;;3.23;3.03;;;23.20;91.00;;;;;;10535331;28;20226;-83
2022/05/17 14:47:45;;;;;;;3.10;2.90;;;23.20;91.70;;;;;;10537512;28;20235;-83
2022/05/17 14:52:48;;;;;;;3.13;2.77;;;23.30;90.40;;;;;;10558914;28;20199;-82
2022/05/17 14:57:51;;;;;;;2.63;2.53;;;23.20;92.60;;;;;;10553043;28;20224;-81
2022/05/17 15:02:57;;;;;;;2.30;2.20;;;23.20;94.80;;;;;;10566299;28;20223;-81
2022/05/17 15:08:01;;;;;;;2.50;2.30;;;23.10;91.50;;;;;;10568392;28;20212;-83
2022/05/17 15:13:03;;;;;;;1.60;1.50;;;23.10;94.80;;;;;;10565164;28;20207;-81
2022/05/17 15:18:12;;;;;;;2.00;1.90;;;23.10;89.00;;;;;;10559468;28;20215;-83
2022/05/17 15:23:14;;;;;;;3.23;1.70;;;23.20;93.60;;;;;;10559804;28;20219;-83
2022/05/17 15:28:16;;;;;;;2.47;2.30;;;23.20;93.50;;;;;;10566331;28;20219;-82
2022/05/17 15:33:45;;;;;;;2.70;2.50;;;23.20;92.10;;;;;;10562050;28;20307;-82
2022/05/17 15:38:54;;;;;;;2.53;2.37;;;23.30;95.30;;;;;;10550464;28;20282;-82
2022/05/17 15:44:00;;;;;;;2.17;2.07;;;23.30;94.20;;;;;;10527037;28;20208;-82
2022/05/17 15:54:23;;;;;;;2.73;2.53;;;23.40;94.40;;;;;;10527078;28;20211;-81
2022/05/17 15:59:26;;;;;;;2.50;2.40;;;23.40;91.50;;;;;;10540597;28;20203;-82
2022/05/17 16:09:49;;;;;;;2.90;2.63;;;23.50;92.10;;;;;;10534105;28;20254;-84
2022/05/17 16:14:51;;;;;;;5.00;2.63;;;23.50;92.20;;;;;;10550298;28;20215;-84
2022/05/17 16:19:55;;;;;;;2.30;2.10;;;23.40;92.00;;;;;;10526275;28;20208;-84
2022/05/17 16:24:58;;;;;;;2.70;2.50;;;23.40;90.80;;;;;;10535033;28;20249;-84
2022/05/17 16:30:00;;;;;;;3.50;3.20;;;23.30;92.30;;;;;;10522302;28;20195;-83
2022/05/17 16:35:05;;;;;;;3.00;2.80;;;23.20;95.40;;;;;;10546479;28;20227;-83
2022/05/17 16:40:11;;;;;;;2.60;2.40;;;23.10;97.10;;;;;;10521506;28;20208;-84
2022/05/17 16:45:18;;;;;;;2.50;2.40;;;22.90;95.00;;;;;;10527966;28;20257;-82
2022/05/17 16:53:55;;;;;;;17.70;3.80;;;22.90;94.10;;;;;;10540619;27;20541;-80
2022/05/17 16:58:57;;;;;;;2.80;2.33;;;23.00;92.80;;;;;;10531779;28;20246;-80
2022/05/17 17:03:59;;;;;;;3.40;3.10;;;23.10;92.80;;;;;;10539481;28;20199;-80
2022/05/17 17:09:04;;;;;;;2.90;2.70;;;23.10;93.10;;;;;;10490353;28;20738;-81
2022/05/17 17:14:07;;;;;;;2.60;2.40;;;23.10;92.70;;;;;;10508573;28;20243;-80
2022/05/17 17:19:10;;;;;;;2.70;2.50;;;23.00;92.50;;;;;;10514673;28;20216;-81
2022/05/17 17:24:13;;;;;;;4.00;2.60;;;23.00;92.80;;;;;;10501679;28;20661;-81
2022/05/17 17:29:18;;;;;;;2.83;2.50;;;23.00;92.70;;;;;;10501487;28;20228;-79
2022/05/17 17:39:42;;;;;;;3.03;2.73;;;23.00;92.90;;;;;;10516953;28;20200;-80
2022/05/17 17:44:56;;;;;;;3.47;3.27;;;22.90;92.90;;;;;;10503687;28;20220;-81
2022/05/17 17:49:59;;;;;;;3.20;3.07;;;22.90;93.60;;;;;;10507568;28;20229;-80
2022/05/17 17:55:02;;;;;;;3.73;3.13;;;22.80;94.00;;;;;;10519785;28;20242;-79
2022/05/17 18:00:07;;;;;;;2.20;2.10;;;22.70;93.30;;;;;;10519120;28;20181;-81
2022/05/17 18:05:14;;;;;;;2.47;2.37;;;22.60;90.30;;;;;;10471052;28;20316;-80
2022/05/17 18:10:19;;;;;;;3.07;2.87;;;22.60;91.90;;;;;;10491088;28;20225;-80
2022/05/17 18:15:22;;;;;;;3.10;2.57;;;22.60;91.10;;;;;;10494512;28;20221;-80
2022/05/17 18:20:26;;;;;;;2.60;2.40;;;22.60;91.70;;;;;;10480385;28;20232;-80
2022/05/17 18:25:29;;;;;;;4.50;2.83;;;22.60;91.50;;;;;;10475633;28;20208;-81
2022/05/17 18:30:32;;;;;;;2.90;2.80;;;22.50;92.50;;;;;;10479959;28;20283;-80
2022/05/17 18:35:34;;;;;;;3.50;3.20;;;22.40;93.40;;;;;;10479483;28;20247;-81
2022/05/17 18:40:38;;;;;;;6.53;4.67;;;22.30;92.90;;;;;;10466882;28;20232;-81
2022/05/17 18:45:42;;;;;;;6.30;5.70;;;22.30;93.30;;;;;;10478650;28;20221;-80
2022/05/17 18:50:44;;;;;;;3.30;3.10;;;22.20;93.10;;;;;;10486768;28;20237;-81
2022/05/17 18:55:50;;;;;;;3.33;3.03;;;22.10;93.20;;;;;;10473126;28;20308;-81
2022/05/17 19:00:55;;;;;;;3.40;3.20;;;22.00;93.60;;;;;;10490897;28;20283;-81
2022/05/17 19:05:59;;;;;;;4.57;2.87;;;21.70;94.30;;;;;;10469982;28;20217;-79
2022/05/17 19:16:26;;;;;;;2.80;2.60;;;21.40;94.40;;;;;;10476122;28;20219;-80
2022/05/17 19:21:31;;;;;;;3.23;2.90;;;21.20;94.20;;;;;;10455104;28;20208;-81
2022/05/17 19:26:36;;;;;;;3.87;3.43;;;21.00;94.70;;;;;;10467303;28;20221;-80
2022/05/17 19:31:41;;;;;;;3.73;3.53;;;20.90;94.50;;;;;;10489731;28;20223;-80
2022/05/17 19:42:08;;;;;;;3.33;3.07;;;20.80;94.80;;;;;;10492466;28;20192;-79
2022/05/17 19:47:19;;;;;;;2.90;2.70;;;20.70;94.70;;;;;;10485281;28;20220;-78
2022/05/17 19:52:26;;;;;;;6.40;3.43;;;20.60;94.80;;;;;;10471767;28;20607;-79
2022/05/17 19:57:29;;;;;;;3.43;3.00;;;20.60;94.80;;;;;;10467205;28;20220;-78
2022/05/17 20:02:32;;;;;;;2.93;2.70;;;20.50;94.70;;;;;;10490337;28;20200;-82
2022/05/17 20:07:39;;;;;;;4.63;3.33;;;20.40;94.90;;;;;;10444632;28;20231;-80
2022/05/17 20:12:45;;;;;;;3.67;3.37;;;20.20;95.00;;;;;;10464173;28;20240;-78
2022/05/17 20:17:49;;;;;;;3.03;2.83;;;20.20;94.70;;;;;;10473846;28;20252;-79
2022/05/17 20:22:54;;;;;;;4.00;3.60;;;20.20;95.00;;;;;;10481287;28;20885;-80
2022/05/17 20:27:58;;;;;;;3.20;2.87;;;20.10;95.10;;;;;;10464940;28;20252;-80
2022/05/17 20:33:01;;;;;;;5.10;3.27;;;20.10;95.00;;;;;;10483830;28;20208;-80
2022/05/17 20:38:03;;;;;;;4.83;2.90;;;20.10;95.20;;;;;;10482933;28;20315;-78
2022/05/17 20:43:10;;;;;;;3.60;3.30;;;20.10;95.00;;;;;;10459813;28;20598;-80
2022/05/17 20:48:22;;;;;;;5.40;3.20;;;20.10;95.30;;;;;;10456437;28;20221;-79
2022/05/17 20:53:24;;;;;;;3.80;3.27;;;20.00;95.00;;;;;;10462632;28;20232;-79
2022/05/17 20:58:28;;;;;;;4.80;3.93;;;20.00;95.30;;;;;;10487122;28;20231;-79
2022/05/17 21:03:30;;;;;;;4.00;3.70;;;19.90;95.70;;;;;;10483503;28;20253;-78
2022/05/17 21:08:34;;;;;;;3.17;2.97;;;19.90;95.20;;;;;;10466522;28;20794;-78
2022/05/17 21:13:47;;;;;;;3.73;3.43;;;19.90;95.60;;;;;;10461224;28;20216;-77
2022/05/17 21:18:50;;;;;;;4.97;3.23;;;19.90;95.50;;;;;;10485036;28;20320;-80
2022/05/17 21:23:53;;;;;;;4.20;2.80;;;19.80;95.70;;;;;;10486660;28;20638;-79
2022/05/17 21:28:57;;;;;;;3.10;2.90;;;19.70;95.80;;;;;;10501921;28;20316;-79
2022/05/17 21:33:59;;;;;;;3.33;3.10;;;19.70;95.60;;;;;;10498164;28;20228;-80
2022/05/17 21:39:02;;;;;;;3.73;3.43;;;19.70;96.00;;;;;;10497257;28;20224;-79
2022/05/17 21:44:07;;;;;;;3.63;3.33;;;19.70;96.50;;;;;;10496962;28;20205;-78
2022/05/17 21:49:09;;;;;;;3.47;3.27;;;19.70;96.90;;;;;;10466244;28;20297;-79
2022/05/17 21:54:12;;;;;;;4.27;3.70;;;19.70;96.60;;;;;;10459145;28;20246;-79
2022/05/17 21:59:18;;;;;;;3.60;3.40;;;19.70;97.20;;;;;;10492841;28;20298;-79
2022/05/17 22:04:20;;;;;;;4.10;3.70;;;19.70;98.20;;;;;;10468198;28;20205;-79
2022/05/17 22:09:22;;;;;;;5.70;3.53;;;19.70;96.50;;;;;;10479932;28;20217;-78
2022/05/17 22:14:26;;;;;;;3.90;3.60;;;19.70;97.70;;;;;;10478222;28;20299;-80
2022/05/17 22:19:31;;;;;;;4.30;3.80;;;19.70;97.80;;;;;;10496991;28;20201;-82
2022/05/17 22:24:34;;;;;;;3.60;3.40;;;19.70;96.40;;;;;;10472759;28;20200;-77
2022/05/17 22:29:37;;;;;;;4.07;3.63;;;19.70;96.00;;;;;;10474917;28;20200;-79
2022/05/17 22:34:40;;;;;;;3.87;3.40;;;19.60;97.10;;;;;;10492996;28;20220;-78
2022/05/17 22:39:42;;;;;;;4.70;4.10;;;19.60;96.70;;;;;;10469126;28;20324;-79
2022/05/17 22:50:07;;;;;;;6.70;4.20;;;19.60;97.00;;;;;;10493189;28;20223;-80
2022/05/17 22:55:10;;;;;;;4.53;3.97;;;19.50;97.40;;;;;;10462358;28;20221;-81
2022/05/17 23:00:16;;;;;;;4.00;3.70;;;19.50;97.00;;;;;;10472771;28;20213;-79
2022/05/17 23:05:18;;;;;;;3.77;3.47;;;19.50;97.10;;;;;;10484125;28;20295;-81
2022/05/17 23:10:20;;;;;;;3.70;3.50;;;19.50;96.70;;;;;;10505392;28;20656;-79
2022/05/17 23:15:24;;;;;;;4.20;3.90;;;19.50;96.70;;;;;;10487839;28;20240;-81
2022/05/17 23:20:28;;;;;;;3.80;3.60;;;19.40;96.70;;;;;;10460656;28;20197;-80
2022/05/17 23:30:51;;;;;;;3.77;3.47;;;19.30;97.30;;;;;;10465452;28;20209;-79
2022/05/17 23:35:54;;;;;;;3.47;3.17;;;19.30;97.30;;;;;;10483268;28;20220;-79
2022/05/17 23:40:57;;;;;;;3.37;3.17;;;19.30;98.00;;;;;;10467041;28;20197;-78
2022/05/17 23:46:00;;;;;;;3.97;3.67;;;19.40;96.90;;;;;;10488908;22;20255;-76
2022/05/17 23:51:03;;;;;;;3.40;3.20;;;19.30;97.70;;;;;;10494599;28;20208;-75
2022/05/17 23:56:06;;;;;;;3.93;3.53;;;19.30;97.10;;;;;;10493265;28;20287;-76
